Time;durP1;ratioP1;P1;durP2;ratioP2;P2;SDS_P1;SDS_P2;PMS_P1;PMS_P2;Temp;Humidity;BMP_temperature;BMP_pressure;BME280_temperature;BME280_humidity;BME280_pressure;Samples;Min_cycle;Max_cycle;Signal;HPM_P1;HPM_P2
2022/08/31 00:05:12;;;;;;;10.17;8.20;;;26.00;37.60;;;;;;4999065;28;20457;-79
2022/08/31 00:07:40;;;;;;;8.57;7.70;;;26.00;37.60;;;;;;4980450;28;20492;-79
2022/08/31 00:10:13;;;;;;;8.40;7.60;;;26.00;37.60;;;;;;4999184;28;20449;-80
2022/08/31 00:12:41;;;;;;;8.57;7.40;;;26.00;37.70;;;;;;5001546;28;20458;-79
2022/08/31 00:15:11;;;;;;;8.47;7.20;;;25.90;37.60;;;;;;5002722;28;20481;-79
2022/08/31 00:17:39;;;;;;;8.80;7.90;;;25.90;37.60;;;;;;5002147;28;20459;-79
2022/08/31 00:20:07;;;;;;;8.10;7.30;;;25.90;37.80;;;;;;5002372;28;20412;-79
2022/08/31 00:22:56;;;;;;;9.30;8.07;;;25.90;37.70;;;;;;4991153;28;20425;-79
2022/08/31 00:25:25;;;;;;;8.80;7.40;;;25.90;37.80;;;;;;4990586;28;20536;-79
2022/08/31 00:27:54;;;;;;;7.40;6.70;;;25.80;37.70;;;;;;4999750;28;20476;-79
2022/08/31 00:30:23;;;;;;;7.70;6.90;;;25.80;37.80;;;;;;5006399;28;20427;-79
2022/08/31 00:32:51;;;;;;;7.00;6.40;;;25.80;37.80;;;;;;5000823;28;20476;-79
2022/08/31 00:35:19;;;;;;;8.10;7.30;;;25.70;37.80;;;;;;5000637;28;20542;-79
2022/08/31 00:37:47;;;;;;;9.40;7.77;;;25.70;37.70;;;;;;5000652;28;20447;-79
2022/08/31 00:40:17;;;;;;;9.30;7.80;;;25.80;37.90;;;;;;4981858;28;20462;-79
2022/08/31 00:42:45;;;;;;;8.37;7.10;;;25.70;37.80;;;;;;4961313;28;20450;-79
2022/08/31 00:45:13;;;;;;;8.63;7.73;;;25.70;37.80;;;;;;4961017;28;20492;-80
2022/08/31 00:47:41;;;;;;;7.40;6.57;;;25.70;37.90;;;;;;4961816;28;20530;-79
2022/08/31 00:50:12;;;;;;;8.40;6.83;;;25.60;37.80;;;;;;4960559;28;20450;-79
2022/08/31 00:52:42;;;;;;;8.93;6.93;;;25.60;37.80;;;;;;4960896;29;20481;-79
2022/08/31 00:55:13;;;;;;;9.23;7.93;;;25.60;37.90;;;;;;4960683;28;20481;-79
2022/08/31 00:57:44;;;;;;;8.20;7.10;;;25.60;37.90;;;;;;4973974;28;20483;-78
2022/08/31 01:00:14;;;;;;;8.50;7.17;;;25.60;37.90;;;;;;5000893;28;20511;-79
2022/08/31 01:02:42;;;;;;;7.90;7.07;;;25.60;38.00;;;;;;5000722;28;20452;-79
2022/08/31 01:05:10;;;;;;;8.20;7.40;;;25.50;38.00;;;;;;4999878;28;20465;-79
2022/08/31 01:07:39;;;;;;;7.53;6.60;;;25.40;38.00;;;;;;5000794;28;20450;-79
2022/08/31 01:10:07;;;;;;;7.70;6.93;;;25.50;38.20;;;;;;4996894;28;20449;-78
2022/08/31 01:12:35;;;;;;;8.40;6.77;;;25.50;38.10;;;;;;4995127;28;20473;-78
2022/08/31 01:15:06;;;;;;;7.00;6.33;;;25.40;38.00;;;;;;4973329;28;20474;-78
2022/08/31 01:17:34;;;;;;;7.30;6.30;;;25.40;38.10;;;;;;4994364;28;20456;-78
2022/08/31 01:20:07;;;;;;;7.23;6.40;;;25.40;38.10;;;;;;4995579;28;20451;-78
2022/08/31 01:22:38;;;;;;;7.30;6.53;;;25.40;38.10;;;;;;4995278;28;20479;-78
2022/08/31 01:25:08;;;;;;;6.30;5.47;;;25.30;38.20;;;;;;4994073;28;20447;-78
2022/08/31 01:27:36;;;;;;;6.40;5.80;;;25.30;38.10;;;;;;4994046;28;20460;-78
2022/08/31 01:30:06;;;;;;;6.40;5.70;;;25.30;38.20;;;;;;4992935;28;20447;-78
2022/08/31 01:32:34;;;;;;;6.23;5.37;;;25.30;38.20;;;;;;4979543;28;20446;-78
2022/08/31 01:35:01;;;;;;;5.90;5.30;;;25.20;38.10;;;;;;4992118;28;21039;-77
2022/08/31 01:37:29;;;;;;;5.53;5.13;;;25.20;38.20;;;;;;4992921;28;20453;-77
2022/08/31 01:39:57;;;;;;;6.17;5.40;;;25.20;38.10;;;;;;4992688;28;20550;-78
2022/08/31 01:42:27;;;;;;;5.50;5.00;;;25.20;38.20;;;;;;4992691;28;20467;-78
2022/08/31 01:45:01;;;;;;;5.67;5.17;;;25.20;38.20;;;;;;4993352;28;20439;-78
2022/08/31 01:47:29;;;;;;;6.20;5.60;;;25.10;38.20;;;;;;4996644;28;20532;-79
2022/08/31 01:49:57;;;;;;;4.90;4.50;;;25.10;38.10;;;;;;4977161;28;20432;-78
2022/08/31 01:52:26;;;;;;;5.27;4.77;;;25.00;38.20;;;;;;4991311;28;20424;-78
2022/08/31 01:54:54;;;;;;;4.87;4.40;;;25.00;38.20;;;;;;4992849;28;20499;-78
2022/08/31 01:57:22;;;;;;;5.80;5.30;;;25.00;38.20;;;;;;4993716;28;20447;-78
2022/08/31 02:00:03;;;;;;;4.43;4.13;;;25.00;38.20;;;;;;4992632;28;20449;-78
2022/08/31 02:02:31;;;;;;;4.87;4.47;;;24.90;38.20;;;;;;4993098;28;20503;-78
2022/08/31 02:04:59;;;;;;;4.97;4.47;;;25.00;38.30;;;;;;4983793;28;20508;-78
2022/08/31 02:07:27;;;;;;;4.90;4.47;;;24.90;38.20;;;;;;4982181;28;20928;-78
2022/08/31 02:09:55;;;;;;;4.63;4.07;;;24.90;38.20;;;;;;4992366;28;20473;-78
2022/08/31 02:12:22;;;;;;;4.53;4.13;;;24.90;38.20;;;;;;4992303;28;20728;-78
2022/08/31 02:14:50;;;;;;;4.90;4.50;;;24.80;38.10;;;;;;4992526;28;20556;-78
2022/08/31 02:17:20;;;;;;;4.10;3.80;;;24.80;38.20;;;;;;4992287;28;20515;-78
2022/08/31 02:19:48;;;;;;;4.33;4.00;;;24.80;38.20;;;;;;4992838;28;20427;-79
2022/08/31 02:22:16;;;;;;;4.20;3.80;;;24.80;38.20;;;;;;4972511;28;20817;-78
2022/08/31 02:24:44;;;;;;;4.27;3.80;;;24.80;38.30;;;;;;4988074;28;20442;-78
2022/08/31 02:27:12;;;;;;;4.60;4.20;;;24.80;38.20;;;;;;4997000;28;20564;-78
2022/08/31 02:29:40;;;;;;;4.40;4.00;;;24.70;38.00;;;;;;4996805;28;20452;-78
2022/08/31 02:32:08;;;;;;;4.57;4.17;;;24.70;38.20;;;;;;4997007;28;20449;-78
2022/08/31 02:34:47;;;;;;;4.20;3.90;;;24.70;38.20;;;;;;4996183;28;20464;-78
2022/08/31 02:37:15;;;;;;;3.80;3.50;;;24.70;38.20;;;;;;4990676;28;20486;-77
2022/08/31 02:39:44;;;;;;;4.10;3.80;;;24.60;38.10;;;;;;4975539;28;20431;-78
2022/08/31 02:42:14;;;;;;;3.80;3.50;;;24.60;38.10;;;;;;4996136;28;20468;-78
2022/08/31 02:44:45;;;;;;;3.80;3.50;;;24.60;38.10;;;;;;4996902;28;20500;-77
2022/08/31 02:47:13;;;;;;;3.80;3.50;;;24.60;38.20;;;;;;5005229;28;20511;-78
2022/08/31 02:49:41;;;;;;;4.00;3.70;;;24.60;38.20;;;;;;4998506;28;20540;-78
2022/08/31 02:52:10;;;;;;;4.17;3.87;;;24.50;38.10;;;;;;4998681;28;20500;-78
2022/08/31 02:54:38;;;;;;;4.20;3.80;;;24.50;38.10;;;;;;4983741;28;20466;-78
2022/08/31 02:57:06;;;;;;;5.13;3.50;;;24.50;38.10;;;;;;4983441;28;20535;-78
2022/08/31 02:59:34;;;;;;;3.67;3.37;;;24.50;38.30;;;;;;4995162;28;20449;-78
2022/08/31 03:02:02;;;;;;;3.23;3.03;;;24.40;38.10;;;;;;4995505;28;20452;-78
2022/08/31 03:04:30;;;;;;;3.93;3.63;;;24.40;38.20;;;;;;4995094;28;20439;-78
2022/08/31 03:06:58;;;;;;;3.60;3.30;;;24.40;38.20;;;;;;4995175;28;20515;-78
2022/08/31 03:09:27;;;;;;;3.80;3.50;;;24.40;38.10;;;;;;4995175;28;20528;-78
2022/08/31 03:11:55;;;;;;;3.90;3.60;;;24.40;38.20;;;;;;4986191;28;20428;-78
2022/08/31 03:14:23;;;;;;;4.03;3.63;;;24.40;38.10;;;;;;4994737;28;20492;-78
2022/08/31 03:16:51;;;;;;;4.90;4.47;;;24.40;38.20;;;;;;4993284;28;20448;-78
2022/08/31 03:19:19;;;;;;;11.10;9.57;;;24.30;38.10;;;;;;4968413;28;20446;-79
2022/08/31 03:21:47;;;;;;;8.07;7.07;;;24.30;38.20;;;;;;4967854;28;20478;-78
2022/08/31 03:24:22;;;;;;;7.50;6.70;;;24.30;38.10;;;;;;4975442;28;20465;-78
2022/08/31 03:26:55;;;;;;;7.77;6.47;;;24.30;38.00;;;;;;4973968;28;20431;-78
2022/08/31 03:29:23;;;;;;;6.50;5.90;;;24.30;38.10;;;;;;4983929;28;20453;-78
2022/08/31 03:31:51;;;;;;;8.20;7.40;;;24.20;37.90;;;;;;4994747;28;20829;-78
2022/08/31 03:34:19;;;;;;;7.63;6.83;;;24.30;38.20;;;;;;4994733;28;20451;-78
2022/08/31 03:36:47;;;;;;;8.63;7.07;;;24.20;38.00;;;;;;4993437;28;20469;-78
2022/08/31 03:39:14;;;;;;;9.17;7.17;;;24.20;38.20;;;;;;4995217;28;20459;-78
2022/08/31 03:41:42;;;;;;;7.57;6.80;;;24.20;38.00;;;;;;4996636;28;20910;-78
2022/08/31 03:44:12;;;;;;;7.60;6.80;;;24.10;38.00;;;;;;4995502;28;20495;-78
2022/08/31 03:46:44;;;;;;;8.47;6.63;;;24.10;38.00;;;;;;4976432;28;20511;-78
2022/08/31 03:49:12;;;;;;;6.80;5.97;;;24.10;38.00;;;;;;4974827;28;20438;-78
2022/08/31 03:51:40;;;;;;;6.43;5.83;;;24.10;38.10;;;;;;4977521;28;20438;-78
2022/08/31 03:54:08;;;;;;;6.53;5.63;;;24.00;38.00;;;;;;4976992;28;20427;-78
2022/08/31 03:56:36;;;;;;;6.33;5.67;;;24.10;38.20;;;;;;4976676;28;20474;-78
2022/08/31 03:59:05;;;;;;;6.20;5.60;;;24.00;38.10;;;;;;4976628;28;20424;-78
2022/08/31 04:01:35;;;;;;;5.80;5.20;;;24.00;38.00;;;;;;4975996;28;20547;-78
2022/08/31 04:04:04;;;;;;;6.30;5.70;;;24.00;38.10;;;;;;4982984;28;20441;-78
2022/08/31 04:06:32;;;;;;;6.43;5.83;;;24.00;38.00;;;;;;4997171;28;20503;-78
2022/08/31 04:09:00;;;;;;;5.77;5.23;;;24.00;38.10;;;;;;4996941;28;20512;-78
2022/08/31 04:11:28;;;;;;;5.37;4.87;;;24.00;38.10;;;;;;4995922;28;20546;-78
2022/08/31 04:14:12;;;;;;;5.70;5.20;;;24.00;38.20;;;;;;4996534;28;20461;-78
2022/08/31 04:16:43;;;;;;;6.00;5.40;;;23.90;38.00;;;;;;4994569;28;20478;-78
2022/08/31 04:19:14;;;;;;;5.57;5.00;;;23.90;38.10;;;;;;4984305;28;20443;-78
2022/08/31 04:21:43;;;;;;;5.33;4.83;;;23.90;38.10;;;;;;4996786;28;20449;-78
2022/08/31 04:24:11;;;;;;;5.50;5.00;;;23.90;38.20;;;;;;4996917;28;20465;-79
2022/08/31 04:26:40;;;;;;;5.20;4.70;;;23.90;38.10;;;;;;4997295;28;20452;-78
2022/08/31 04:29:08;;;;;;;5.13;4.63;;;23.90;38.20;;;;;;4997555;28;20524;-78
2022/08/31 04:31:40;;;;;;;5.33;4.83;;;23.80;38.10;;;;;;4997312;28;20431;-78
2022/08/31 04:34:09;;;;;;;3.90;3.60;;;23.80;38.10;;;;;;4979236;28;20463;-78
2022/08/31 04:36:38;;;;;;;4.20;3.90;;;23.80;38.00;;;;;;4995555;28;20445;-78
2022/08/31 04:39:06;;;;;;;4.37;3.70;;;23.80;38.10;;;;;;4995906;28;20428;-79
2022/08/31 04:41:35;;;;;;;4.50;4.10;;;23.70;37.90;;;;;;4998438;28;20426;-79
2022/08/31 04:44:03;;;;;;;5.13;4.63;;;23.70;38.00;;;;;;4996771;28;20484;-78
2022/08/31 04:46:31;;;;;;;4.17;3.33;;;23.70;38.10;;;;;;4995891;28;20456;-80
2022/08/31 04:48:59;;;;;;;3.80;3.60;;;23.80;38.20;;;;;;4996171;28;20424;-78
2022/08/31 04:51:30;;;;;;;4.33;3.93;;;23.70;38.00;;;;;;4982035;28;20531;-78
2022/08/31 04:53:58;;;;;;;3.90;3.60;;;23.70;37.90;;;;;;4989128;28;20459;-78
2022/08/31 04:56:27;;;;;;;3.33;3.13;;;23.70;37.90;;;;;;4995107;28;20481;-78
2022/08/31 04:58:56;;;;;;;3.40;3.10;;;23.70;38.00;;;;;;4995200;28;20543;-78
2022/08/31 05:01:26;;;;;;;3.23;3.00;;;23.70;38.00;;;;;;4994577;28;20792;-78
2022/08/31 05:03:55;;;;;;;3.10;2.90;;;23.70;38.00;;;;;;4994800;28;20794;-78
2022/08/31 05:06:24;;;;;;;2.87;2.77;;;23.70;37.90;;;;;;4994754;28;20536;-78
2022/08/31 05:08:55;;;;;;;2.77;2.67;;;23.70;38.00;;;;;;4985738;28;20461;-79
2022/08/31 05:11:23;;;;;;;3.00;2.80;;;23.70;38.10;;;;;;4983505;28;20480;-78
2022/08/31 05:13:52;;;;;;;2.97;2.80;;;23.70;38.00;;;;;;4994674;28;20460;-78
2022/08/31 05:16:20;;;;;;;3.30;3.10;;;23.60;37.90;;;;;;4985398;28;20459;-78
2022/08/31 05:18:49;;;;;;;4.30;3.17;;;23.60;38.00;;;;;;4974085;28;20466;-78
2022/08/31 05:21:18;;;;;;;2.40;2.30;;;23.60;37.90;;;;;;4976194;28;20533;-78
2022/08/31 05:23:46;;;;;;;3.00;2.80;;;23.60;37.90;;;;;;4976555;28;20517;-79
2022/08/31 05:26:18;;;;;;;2.73;2.63;;;23.60;37.90;;;;;;4976428;28;20444;-79
2022/08/31 05:28:51;;;;;;;3.70;2.70;;;23.60;38.00;;;;;;4989471;28;20462;-79
2022/08/31 05:31:19;;;;;;;2.47;2.33;;;23.60;38.00;;;;;;4995601;28;20424;-79
2022/08/31 05:33:47;;;;;;;3.03;2.83;;;23.60;37.90;;;;;;4995746;28;20454;-78
2022/08/31 05:36:15;;;;;;;2.43;2.33;;;23.60;38.00;;;;;;4995655;28;20469;-79
2022/08/31 05:38:43;;;;;;;2.33;2.23;;;23.60;37.90;;;;;;4994317;28;20543;-78
2022/08/31 05:41:11;;;;;;;2.97;2.77;;;23.60;37.90;;;;;;4991545;28;20456;-79
2022/08/31 05:43:41;;;;;;;2.20;2.10;;;23.60;38.00;;;;;;4980753;28;20460;-79
2022/08/31 05:46:10;;;;;;;2.43;2.20;;;23.60;38.00;;;;;;4995910;28;20550;-79
2022/08/31 05:48:38;;;;;;;2.13;2.03;;;23.50;38.00;;;;;;4995571;28;20408;-78
2022/08/31 05:51:09;;;;;;;2.13;2.03;;;23.60;38.00;;;;;;4995307;28;20515;-79
2022/08/31 05:53:38;;;;;;;2.80;2.40;;;23.60;38.00;;;;;;4995622;28;20452;-79
2022/08/31 05:56:09;;;;;;;1.97;1.83;;;23.60;37.90;;;;;;4998330;28;20498;-78
2022/08/31 05:58:37;;;;;;;2.13;2.03;;;23.60;38.00;;;;;;4999463;28;20538;-78
2022/08/31 06:01:13;;;;;;;2.13;2.03;;;23.50;37.90;;;;;;4984525;28;20462;-78
2022/08/31 06:03:41;;;;;;;2.93;2.03;;;23.60;38.00;;;;;;4998671;28;20452;-78
2022/08/31 06:06:10;;;;;;;2.00;1.90;;;23.50;37.90;;;;;;4999992;28;20857;-78
2022/08/31 06:08:38;;;;;;;1.80;1.70;;;23.60;38.00;;;;;;4998813;28;20444;-78
2022/08/31 06:11:06;;;;;;;1.90;1.80;;;23.60;37.90;;;;;;4998472;28;20436;-78
2022/08/31 06:13:33;;;;;;;1.73;1.63;;;23.60;38.00;;;;;;4998378;28;20491;-78
2022/08/31 06:16:02;;;;;;;1.80;1.70;;;23.60;37.90;;;;;;4998345;28;20475;-78
2022/08/31 06:18:32;;;;;;;1.97;1.87;;;23.60;37.90;;;;;;4993016;28;20545;-79
2022/08/31 06:21:07;;;;;;;1.67;1.57;;;23.60;37.80;;;;;;4977745;28;20493;-78
2022/08/31 06:23:36;;;;;;;2.13;2.03;;;23.70;38.00;;;;;;4979152;28;20430;-78
2022/08/31 06:26:05;;;;;;;1.50;1.50;;;23.70;37.80;;;;;;4979225;28;20466;-79
2022/08/31 06:28:33;;;;;;;1.80;1.70;;;23.70;37.90;;;;;;4979594;28;20449;-78
2022/08/31 06:31:03;;;;;;;2.90;1.93;;;23.80;38.00;;;;;;4980739;28;20537;-79
2022/08/31 06:33:32;;;;;;;1.77;1.67;;;23.80;37.80;;;;;;4983358;28;20454;-79
2022/08/31 06:36:00;;;;;;;1.70;1.60;;;23.90;37.90;;;;;;4982881;28;20550;-79
2022/08/31 06:38:28;;;;;;;1.57;1.47;;;23.90;37.80;;;;;;4985978;28;20457;-79
2022/08/31 06:40:59;;;;;;;1.93;1.83;;;24.00;37.80;;;;;;5001144;28;20449;-79
2022/08/31 06:43:27;;;;;;;5.33;1.40;;;24.00;37.70;;;;;;4999458;28;20449;-79
2022/08/31 06:45:57;;;;;;;1.37;1.27;;;24.10;37.70;;;;;;4998817;28;20469;-78
2022/08/31 06:48:24;;;;;;;1.80;1.70;;;24.10;37.80;;;;;;4998616;28;20415;-79
2022/08/31 06:50:57;;;;;;;1.50;1.37;;;24.10;37.70;;;;;;5001037;28;20481;-79
2022/08/31 06:53:25;;;;;;;1.70;1.60;;;24.10;37.70;;;;;;5003427;28;20814;-79
2022/08/31 06:55:53;;;;;;;3.93;1.57;;;24.10;37.60;;;;;;4991326;28;20463;-79
2022/08/31 06:58:21;;;;;;;1.67;1.50;;;24.20;37.80;;;;;;4979041;28;20476;-78
2022/08/31 07:00:49;;;;;;;1.70;1.60;;;24.20;37.70;;;;;;4978485;28;20519;-78
2022/08/31 07:03:31;;;;;;;1.27;1.27;;;24.20;37.80;;;;;;4979309;28;20436;-78
2022/08/31 07:06:04;;;;;;;1.40;1.40;;;24.20;37.80;;;;;;4978971;28;20445;-78
2022/08/31 07:08:32;;;;;;;1.10;1.10;;;24.30;37.80;;;;;;4976397;28;20428;-79
2022/08/31 07:11:01;;;;;;;1.60;1.50;;;24.30;38.40;;;;;;4974793;28;20783;-78
2022/08/31 07:13:30;;;;;;;1.30;1.20;;;24.30;37.80;;;;;;4980261;28;20520;-77
2022/08/31 07:16:05;;;;;;;1.57;1.47;;;24.30;37.90;;;;;;4997137;28;20452;-79
2022/08/31 07:18:33;;;;;;;1.60;1.50;;;24.30;37.80;;;;;;4996111;28;20510;-77
2022/08/31 07:21:10;;;;;;;1.20;1.20;;;24.40;38.00;;;;;;4995734;28;20459;-79
2022/08/31 07:23:39;;;;;;;1.00;1.00;;;24.40;38.00;;;;;;4999930;28;20447;-78
2022/08/31 07:26:07;;;;;;;1.10;1.10;;;24.50;38.00;;;;;;4994917;28;20507;-78
2022/08/31 07:28:35;;;;;;;1.37;1.33;;;24.50;38.00;;;;;;4997014;28;20499;-79
2022/08/31 07:31:04;;;;;;;1.30;1.20;;;24.50;37.90;;;;;;4976536;28;20432;-78
2022/08/31 07:33:36;;;;;;;1.20;1.10;;;24.50;37.90;;;;;;4995304;28;20452;-78
2022/08/31 07:36:11;;;;;;;0.93;0.93;;;24.60;38.10;;;;;;4997052;28;20440;-78
2022/08/31 07:44:18;;;;;;;0.90;0.90;;;24.70;38.10;;;;;;4995749;28;20419;-79
2022/08/31 07:46:46;;;;;;;1.30;1.20;;;24.70;38.20;;;;;;4984762;28;20492;-79
2022/08/31 07:49:16;;;;;;;1.00;0.90;;;24.80;38.20;;;;;;4997117;28;20783;-79
2022/08/31 07:51:49;;;;;;;1.23;0.90;;;24.80;38.20;;;;;;4989737;28;20536;-78
2022/08/31 07:54:19;;;;;;;1.30;1.20;;;24.90;38.20;;;;;;4986011;28;20424;-78
2022/08/31 07:56:49;;;;;;;1.00;1.00;;;25.00;38.30;;;;;;4985943;28;20426;-78
2022/08/31 07:59:17;;;;;;;0.93;0.93;;;25.10;38.40;;;;;;4987464;28;20991;-78
2022/08/31 08:01:45;;;;;;;1.00;0.90;;;25.20;38.40;;;;;;4988432;28;20958;-78
2022/08/31 08:04:24;;;;;;;1.00;1.00;;;25.40;38.30;;;;;;4984090;28;20440;-79
2022/08/31 08:06:54;;;;;;;0.80;0.80;;;25.50;38.10;;;;;;4991369;28;20456;-79
2022/08/31 08:09:22;;;;;;;1.17;1.10;;;25.70;37.80;;;;;;4986100;28;20447;-79
2022/08/31 08:11:54;;;;;;;0.80;0.80;;;25.90;37.80;;;;;;4987165;28;20946;-79
2022/08/31 08:14:28;;;;;;;0.80;0.80;;;26.00;37.60;;;;;;4986160;28;20555;-79
2022/08/31 08:16:57;;;;;;;1.00;1.00;;;26.20;37.60;;;;;;4991163;28;20421;-80
2022/08/31 08:19:24;;;;;;;0.80;0.80;;;26.40;37.60;;;;;;4993772;28;20527;-80
2022/08/31 08:21:54;;;;;;;0.80;0.80;;;26.50;37.50;;;;;;4985741;28;20538;-79
2022/08/31 08:24:23;;;;;;;1.00;1.00;;;26.70;37.30;;;;;;4990588;28;20467;-80
2022/08/31 08:26:52;;;;;;;1.10;1.00;;;26.90;37.20;;;;;;5001308;28;20460;-80
2022/08/31 08:29:22;;;;;;;0.80;0.80;;;27.10;37.20;;;;;;4996119;28;20438;-81
2022/08/31 08:31:51;;;;;;;0.90;0.90;;;27.30;36.90;;;;;;4997853;28;20448;-82
2022/08/31 08:34:20;;;;;;;1.20;1.10;;;27.50;36.90;;;;;;4993138;28;20425;-82
2022/08/31 08:36:59;;;;;;;1.00;1.00;;;27.60;36.70;;;;;;4982722;28;20449;-81
2022/08/31 08:39:27;;;;;;;0.87;0.87;;;27.80;36.80;;;;;;4980333;28;20456;-81
2022/08/31 08:41:56;;;;;;;0.97;0.80;;;28.00;36.70;;;;;;4999657;28;20450;-81
2022/08/31 08:44:25;;;;;;;1.10;1.10;;;28.10;36.50;;;;;;5000301;28;20519;-82
2022/08/31 08:46:54;;;;;;;0.80;0.80;;;28.30;36.50;;;;;;4990313;28;20532;-82
2022/08/31 08:49:30;;;;;;;0.70;0.70;;;28.40;36.40;;;;;;4979805;28;20452;-81
2022/08/31 08:52:02;;;;;;;0.73;0.73;;;28.60;36.40;;;;;;4980498;28;20541;-82
2022/08/31 08:54:31;;;;;;;0.70;0.70;;;28.70;36.30;;;;;;4980938;28;20525;-83
2022/08/31 08:56:59;;;;;;;1.00;0.90;;;28.90;36.20;;;;;;4981756;28;20465;-82
2022/08/31 08:59:28;;;;;;;1.00;1.00;;;29.00;36.20;;;;;;4985595;28;20474;-82
2022/08/31 09:02:00;;;;;;;0.90;0.90;;;29.20;36.10;;;;;;4979962;28;20474;-82
2022/08/31 09:04:44;;;;;;;0.80;0.80;;;29.40;36.00;;;;;;4987424;28;20473;-82
2022/08/31 09:07:29;;;;;;;0.87;0.87;;;29.40;35.80;;;;;;4990490;28;20445;-82
2022/08/31 09:10:01;;;;;;;2.10;0.90;;;29.60;35.80;;;;;;5002139;28;20476;-82
2022/08/31 09:12:34;;;;;;;0.80;0.80;;;29.80;35.80;;;;;;4999581;28;20509;-81
2022/08/31 09:15:14;;;;;;;0.80;0.80;;;30.00;35.80;;;;;;4998789;28;20475;-83
2022/08/31 09:17:47;;;;;;;1.00;0.90;;;30.00;35.60;;;;;;5003740;28;20466;-82
2022/08/31 09:20:15;;;;;;;0.80;0.80;;;29.90;35.60;;;;;;5003444;28;20469;-81
2022/08/31 09:22:48;;;;;;;0.70;0.70;;;29.90;35.70;;;;;;5001091;28;20540;-82
2022/08/31 09:25:18;;;;;;;0.87;0.70;;;29.80;35.90;;;;;;5000623;28;20496;-83
2022/08/31 09:27:56;;;;;;;0.70;0.70;;;29.70;36.00;;;;;;5001152;28;20520;-81
2022/08/31 09:30:39;;;;;;;0.80;0.80;;;29.70;36.20;;;;;;4984294;28;20451;-81
2022/08/31 09:33:08;;;;;;;1.23;0.80;;;29.80;36.60;;;;;;5001975;28;20480;-82
2022/08/31 09:35:40;;;;;;;0.70;0.70;;;30.00;36.60;;;;;;5007904;28;20533;-82
2022/08/31 09:38:26;;;;;;;0.80;0.80;;;30.30;36.30;;;;;;4987421;28;20450;-81
2022/08/31 09:40:54;;;;;;;0.80;0.80;;;30.40;36.10;;;;;;4985937;28;20565;-80
2022/08/31 09:43:28;;;;;;;0.80;0.80;;;30.50;36.30;;;;;;4985370;28;20469;-80
2022/08/31 09:45:58;;;;;;;0.80;0.80;;;30.70;36.00;;;;;;4982220;28;20452;-81
2022/08/31 09:48:44;;;;;;;1.07;0.70;;;30.80;35.80;;;;;;5003994;28;20430;-80
2022/08/31 09:51:20;;;;;;;1.27;0.70;;;30.90;36.10;;;;;;5004049;28;20547;-81
2022/08/31 09:56:53;;;;;;;0.70;0.70;;;30.90;35.90;;;;;;5003843;28;20480;-82
2022/08/31 09:59:36;;;;;;;0.70;0.70;;;30.90;35.90;;;;;;5004457;28;20437;-81
2022/08/31 10:02:07;;;;;;;0.80;0.80;;;31.10;36.20;;;;;;4995036;28;20462;-81
2022/08/31 10:04:46;;;;;;;0.70;0.70;;;31.20;36.00;;;;;;5001473;28;20464;-80
2022/08/31 10:07:27;;;;;;;0.70;0.70;;;31.50;35.80;;;;;;5004237;28;20435;-81
2022/08/31 10:10:00;;;;;;;0.90;0.70;;;31.70;35.70;;;;;;5002827;28;20995;-81
2022/08/31 10:12:38;;;;;;;0.60;0.60;;;31.80;35.20;;;;;;5004570;28;20449;-80
2022/08/31 10:15:10;;;;;;;2.43;0.70;;;31.90;35.20;;;;;;5003781;28;20469;-81
2022/08/31 10:17:45;;;;;;;1.60;0.70;;;31.90;35.20;;;;;;4992220;28;20457;-80
2022/08/31 10:20:18;;;;;;;0.60;0.60;;;31.90;35.60;;;;;;4991605;28;20534;-80
2022/08/31 10:22:49;;;;;;;0.70;0.70;;;32.10;35.50;;;;;;5003634;28;20457;-80
2022/08/31 10:25:25;;;;;;;0.67;0.67;;;32.30;35.20;;;;;;4991299;28;20470;-80
2022/08/31 10:27:57;;;;;;;1.00;0.70;;;32.50;35.30;;;;;;4987222;28;20449;-81
2022/08/31 10:30:29;;;;;;;0.97;0.80;;;32.70;34.90;;;;;;4986231;28;20461;-81
2022/08/31 10:33:01;;;;;;;0.90;0.90;;;32.80;34.80;;;;;;4985314;28;20457;-82
2022/08/31 10:35:35;;;;;;;0.70;0.70;;;33.00;34.90;;;;;;4982879;28;20487;-81
2022/08/31 10:38:07;;;;;;;1.07;0.70;;;33.10;34.70;;;;;;4999886;28;20433;-82
2022/08/31 10:40:39;;;;;;;0.90;0.90;;;33.30;34.50;;;;;;4988233;28;20520;-81
2022/08/31 10:43:12;;;;;;;0.80;0.80;;;33.40;34.50;;;;;;4986369;28;20451;-81
2022/08/31 10:45:42;;;;;;;0.70;0.70;;;33.50;34.30;;;;;;4985419;28;20504;-82
2022/08/31 10:48:11;;;;;;;0.60;0.60;;;33.70;34.20;;;;;;4985662;28;20465;-80
2022/08/31 10:50:44;;;;;;;0.83;0.83;;;33.80;34.10;;;;;;4984122;28;20450;-81
2022/08/31 10:53:31;;;;;;;0.80;0.80;;;33.90;33.90;;;;;;4996165;28;20445;-82
2022/08/31 10:56:15;;;;;;;0.77;0.77;;;34.10;33.90;;;;;;4964695;28;20487;-80
2022/08/31 10:59:05;;;;;;;0.77;0.77;;;34.20;33.60;;;;;;4963975;29;20846;-80
2022/08/31 11:01:39;;;;;;;0.70;0.70;;;34.20;33.50;;;;;;4963476;28;20449;-80
2022/08/31 11:04:34;;;;;;;0.63;0.63;;;34.40;33.80;;;;;;4964538;28;20439;-81
2022/08/31 11:07:11;;;;;;;0.70;0.70;;;34.30;33.40;;;;;;4964867;28;20514;-80
2022/08/31 11:09:41;;;;;;;0.90;0.90;;;34.40;33.70;;;;;;4981667;28;20465;-82
2022/08/31 11:12:12;;;;;;;0.70;0.70;;;34.40;33.80;;;;;;5002700;28;20469;-81
2022/08/31 11:14:48;;;;;;;0.70;0.70;;;34.40;33.80;;;;;;5003250;28;20497;-81
2022/08/31 11:17:37;;;;;;;0.80;0.80;;;34.40;34.00;;;;;;5003762;28;20445;-81
2022/08/31 11:20:31;;;;;;;0.90;0.70;;;34.40;33.60;;;;;;5003918;28;20844;-81
2022/08/31 11:23:26;;;;;;;1.00;1.00;;;34.50;33.40;;;;;;5000750;28;20515;-82
2022/08/31 11:26:25;;;;;;;0.63;0.63;;;34.80;33.60;;;;;;4979885;28;20465;-82
2022/08/31 11:28:57;;;;;;;0.60;0.60;;;34.90;33.30;;;;;;4961097;29;20514;-79
2022/08/31 11:31:27;;;;;;;0.70;0.70;;;35.00;33.40;;;;;;4963175;29;20526;-80
2022/08/31 11:33:56;;;;;;;0.60;0.60;;;35.10;33.10;;;;;;4962117;29;20447;-80
2022/08/31 11:36:48;;;;;;;0.60;0.60;;;35.00;33.30;;;;;;4969300;28;20457;-80
2022/08/31 11:39:34;;;;;;;0.80;0.60;;;35.20;33.30;;;;;;4997453;28;20447;-80
2022/08/31 11:42:02;;;;;;;4.07;0.70;;;35.30;33.00;;;;;;5002381;28;20503;-80
2022/08/31 11:45:00;;;;;;;1.50;0.63;;;35.40;32.90;;;;;;4982709;28;20493;-80
2022/08/31 11:47:43;;;;;;;0.60;0.60;;;35.50;32.60;;;;;;4982514;28;20461;-79
2022/08/31 11:50:33;;;;;;;0.90;0.70;;;35.30;32.70;;;;;;4981454;28;20450;-80
2022/08/31 11:53:05;;;;;;;0.80;0.80;;;35.40;32.70;;;;;;4986499;28;20489;-79
2022/08/31 11:55:45;;;;;;;1.10;0.60;;;35.50;32.60;;;;;;4970591;28;20478;-79
2022/08/31 11:58:24;;;;;;;0.93;0.80;;;35.70;32.30;;;;;;4963807;28;20447;-79
2022/08/31 12:00:58;;;;;;;0.70;0.70;;;35.80;32.20;;;;;;4970716;28;20478;-79
2022/08/31 12:03:41;;;;;;;2.60;0.63;;;36.00;32.10;;;;;;4983623;28;20458;-79
2022/08/31 12:06:11;;;;;;;2.60;0.70;;;36.00;31.80;;;;;;4964664;28;20977;-79
2022/08/31 12:08:53;;;;;;;0.70;0.70;;;35.90;32.00;;;;;;4981809;28;20470;-79
2022/08/31 12:11:29;;;;;;;9.53;0.87;;;36.00;32.00;;;;;;4985853;28;20445;-80
2022/08/31 12:14:01;;;;;;;1.27;0.80;;;36.10;31.80;;;;;;4984030;28;20450;-80
2022/08/31 12:16:45;;;;;;;1.90;0.90;;;36.20;31.90;;;;;;4988516;28;20505;-80
2022/08/31 12:26:23;;;;;;;0.70;0.70;;;36.50;31.50;;;;;;4987389;28;20466;-81
2022/08/31 12:29:14;;;;;;;0.90;0.90;;;36.60;31.60;;;;;;4999789;28;20473;-80
2022/08/31 12:31:43;;;;;;;0.90;0.90;;;36.60;31.50;;;;;;4994262;28;20442;-80
2022/08/31 12:34:12;;;;;;;1.20;0.80;;;36.70;31.50;;;;;;4984732;28;20501;-79
2022/08/31 12:36:42;;;;;;;1.03;0.93;;;36.80;31.30;;;;;;4980794;28;20450;-79
2022/08/31 12:39:20;;;;;;;1.63;0.90;;;36.80;31.30;;;;;;4984237;28;20930;-80
2022/08/31 12:41:49;;;;;;;1.13;0.80;;;36.90;31.40;;;;;;4985100;28;20478;-79
2022/08/31 12:44:20;;;;;;;1.43;0.80;;;37.00;31.50;;;;;;4984731;28;20442;-79
2022/08/31 12:47:01;;;;;;;0.90;0.90;;;37.00;31.50;;;;;;4982549;28;20446;-81
2022/08/31 12:49:59;;;;;;;0.80;0.80;;;37.10;31.60;;;;;;4980584;28;20540;-81
2022/08/31 12:52:36;;;;;;;1.10;0.97;;;37.10;31.60;;;;;;4968047;28;20450;-81
2022/08/31 12:55:22;;;;;;;0.80;0.80;;;37.20;31.30;;;;;;4980059;28;20474;-81
2022/08/31 12:57:59;;;;;;;0.90;0.90;;;37.20;31.00;;;;;;4980646;28;20446;-82
2022/08/31 13:00:28;;;;;;;0.90;0.90;;;37.10;30.90;;;;;;4981790;28;20534;-81
2022/08/31 13:02:59;;;;;;;1.00;0.80;;;37.00;31.60;;;;;;4980886;28;20484;-81
2022/08/31 13:05:29;;;;;;;0.80;0.80;;;36.90;31.50;;;;;;4978581;28;20473;-81
2022/08/31 13:07:59;;;;;;;13.97;0.90;;;37.00;31.70;;;;;;4978748;28;20454;-82
2022/08/31 13:10:30;;;;;;;2.10;0.90;;;36.60;30.20;;;;;;4980184;28;20480;-83
2022/08/31 13:13:01;;;;;;;2.87;0.97;;;36.60;30.30;;;;;;4985768;28;20453;-84
2022/08/31 13:15:30;;;;;;;1.87;0.80;;;36.70;30.60;;;;;;4997830;28;20999;-83
2022/08/31 13:18:02;;;;;;;2.20;0.87;;;36.80;30.60;;;;;;5001117;28;20449;-82
2022/08/31 13:20:42;;;;;;;1.70;0.80;;;36.70;30.40;;;;;;4999138;28;20504;-84
2022/08/31 13:23:14;;;;;;;1.27;0.80;;;36.80;30.30;;;;;;4995199;28;20482;-83
2022/08/31 13:25:43;;;;;;;2.83;1.00;;;36.80;30.30;;;;;;4984043;28;20469;-83
2022/08/31 13:28:29;;;;;;;1.43;0.80;;;36.80;30.20;;;;;;4984871;28;20542;-83